Time;durP1;ratioP1;P1;durP2;ratioP2;P2;SDS_P1;SDS_P2;PMS_P1;PMS_P2;Temp;Humidity;BMP_temperature;BMP_pressure;BME280_temperature;BME280_humidity;BME280_pressure;Samples;Min_cycle;Max_cycle;Signal;HPM_P1;HPM_P2
2023/10/31 00:01:56;;;;;;;0.90;0.73;;;11.80;99.90;;;;;;5042695;28;20029;-46
2023/10/31 00:04:22;;;;;;;1.60;1.00;;;11.80;99.90;;;;;;5041193;28;20021;-45
2023/10/31 00:06:47;;;;;;;2.05;1.10;;;11.70;99.90;;;;;;5042307;28;20436;-44
2023/10/31 00:09:13;;;;;;;1.90;0.82;;;11.70;99.90;;;;;;5041316;28;20128;-45
2023/10/31 00:11:41;;;;;;;1.52;0.82;;;11.60;99.90;;;;;;5042135;28;20033;-46
2023/10/31 00:14:08;;;;;;;1.85;0.90;;;11.60;99.90;;;;;;5042064;28;20029;-45
2023/10/31 00:16:34;;;;;;;0.82;0.77;;;11.60;99.90;;;;;;5022022;28;20025;-46
2023/10/31 00:18:59;;;;;;;1.60;0.77;;;11.60;99.90;;;;;;5034611;28;20020;-46
2023/10/31 00:21:25;;;;;;;1.15;0.90;;;11.60;99.90;;;;;;5041987;28;20068;-46
2023/10/31 00:23:50;;;;;;;1.92;0.90;;;11.60;99.90;;;;;;5041824;28;20024;-45
2023/10/31 00:26:16;;;;;;;1.30;0.80;;;11.60;99.90;;;;;;5040575;28;20033;-44
2023/10/31 00:28:42;;;;;;;0.50;0.40;;;11.60;99.90;;;;;;5042483;28;20021;-45
2023/10/31 00:31:08;;;;;;;1.15;0.70;;;11.60;99.90;;;;;;5041324;28;20039;-45
2023/10/31 00:33:34;;;;;;;0.98;0.70;;;11.70;99.90;;;;;;5041224;28;20025;-46
2023/10/31 00:36:00;;;;;;;1.50;0.80;;;11.70;99.90;;;;;;5041712;28;20098;-45
2023/10/31 00:38:26;;;;;;;1.33;0.68;;;11.70;99.90;;;;;;5041356;28;20021;-45
2023/10/31 00:40:52;;;;;;;1.48;0.75;;;11.70;99.90;;;;;;5041318;28;20024;-45
2023/10/31 00:43:17;;;;;;;1.83;1.00;;;11.70;99.90;;;;;;5041359;28;20025;-45
2023/10/31 00:45:43;;;;;;;2.40;0.82;;;11.70;99.90;;;;;;5042208;28;20790;-44
2023/10/31 00:48:08;;;;;;;1.05;0.95;;;11.60;99.90;;;;;;5041993;28;20040;-44
2023/10/31 00:50:34;;;;;;;1.20;0.77;;;11.60;99.90;;;;;;5041539;28;20025;-44
2023/10/31 00:53:00;;;;;;;2.15;1.17;;;11.60;99.90;;;;;;5041704;28;20737;-46
2023/10/31 00:55:25;;;;;;;2.33;1.05;;;11.50;99.90;;;;;;5041090;28;20159;-45
2023/10/31 00:57:52;;;;;;;1.35;0.90;;;11.50;99.90;;;;;;5042003;28;20503;-45
2023/10/31 01:00:21;;;;;;;1.67;1.35;;;11.60;99.90;;;;;;5041400;28;20049;-45
2023/10/31 01:02:46;;;;;;;2.58;1.17;;;11.50;99.90;;;;;;5040918;28;20168;-44
2023/10/31 01:05:12;;;;;;;3.20;1.20;;;11.50;99.90;;;;;;5040566;28;20470;-43
2023/10/31 01:07:37;;;;;;;3.78;1.60;;;11.50;99.90;;;;;;5040256;28;20465;-44
2023/10/31 01:10:04;;;;;;;2.08;1.80;;;11.50;99.90;;;;;;5040829;28;20013;-45
2023/10/31 01:12:30;;;;;;;5.28;1.98;;;11.40;99.90;;;;;;5040568;28;20028;-47
2023/10/31 01:14:56;;;;;;;2.20;1.60;;;11.50;99.90;;;;;;5039341;28;20025;-44
2023/10/31 01:17:22;;;;;;;3.63;2.00;;;11.50;99.90;;;;;;5041461;28;20086;-43
2023/10/31 01:19:47;;;;;;;3.25;1.95;;;11.50;99.90;;;;;;5040198;28;20025;-43
2023/10/31 01:22:13;;;;;;;3.38;2.30;;;11.50;99.90;;;;;;5039673;28;20025;-43
2023/10/31 01:24:38;;;;;;;4.22;3.40;;;11.50;99.90;;;;;;5041184;28;20025;-45
2023/10/31 01:27:04;;;;;;;7.05;4.32;;;11.50;99.90;;;;;;5039995;28;20029;-45
2023/10/31 01:29:30;;;;;;;7.20;4.75;;;11.50;99.90;;;;;;5039749;28;20032;-45
2023/10/31 01:31:56;;;;;;;7.45;5.50;;;11.40;99.90;;;;;;5040272;28;20075;-44
2023/10/31 01:34:21;;;;;;;6.85;5.60;;;11.50;99.90;;;;;;5040563;28;20049;-45
2023/10/31 01:36:47;;;;;;;8.32;6.07;;;11.40;99.90;;;;;;5040016;28;20024;-45
2023/10/31 01:39:12;;;;;;;5.85;5.25;;;11.50;99.90;;;;;;5040299;28;20024;-44
2023/10/31 01:41:41;;;;;;;9.95;7.53;;;11.50;99.90;;;;;;5040287;28;20548;-45
2023/10/31 01:44:07;;;;;;;8.57;7.43;;;11.50;99.90;;;;;;5039611;28;20029;-44
2023/10/31 01:46:36;;;;;;;7.18;6.03;;;11.50;99.90;;;;;;5040735;28;20102;-44
2023/10/31 01:49:02;;;;;;;8.52;6.07;;;11.50;99.90;;;;;;5040771;28;20384;-44
2023/10/31 01:51:28;;;;;;;8.15;6.97;;;11.50;99.90;;;;;;5040004;28;20106;-43
2023/10/31 01:53:54;;;;;;;8.80;6.78;;;11.60;99.90;;;;;;5040396;28;20966;-44
2023/10/31 01:56:21;;;;;;;10.45;6.70;;;11.60;99.90;;;;;;5040751;28;20037;-43
2023/10/31 01:58:49;;;;;;;7.65;5.78;;;11.60;99.90;;;;;;5040752;28;20025;-44
2023/10/31 02:01:14;;;;;;;7.55;6.60;;;11.60;99.90;;;;;;5040648;28;20025;-44
2023/10/31 02:03:40;;;;;;;10.63;7.22;;;11.60;99.90;;;;;;5040712;28;20025;-45
2023/10/31 02:06:06;;;;;;;7.05;6.35;;;11.60;99.90;;;;;;5039818;28;20102;-45
2023/10/31 02:08:32;;;;;;;8.88;6.88;;;11.60;99.90;;;;;;5040029;28;20503;-44
2023/10/31 02:10:57;;;;;;;8.23;6.75;;;11.60;99.90;;;;;;5039867;28;20140;-44
2023/10/31 02:13:23;;;;;;;8.68;6.60;;;11.70;99.90;;;;;;5040051;28;20070;-44
2023/10/31 02:15:49;;;;;;;6.85;6.00;;;11.70;99.90;;;;;;5040834;28;20013;-44
2023/10/31 02:18:15;;;;;;;9.45;7.13;;;11.70;99.90;;;;;;5039269;28;20022;-44
2023/10/31 02:20:43;;;;;;;8.75;6.40;;;11.70;99.90;;;;;;5030643;28;20017;-44
2023/10/31 02:23:09;;;;;;;7.57;6.70;;;11.70;99.90;;;;;;5040230;28;20029;-45
2023/10/31 02:25:35;;;;;;;8.48;6.78;;;11.70;99.90;;;;;;5039638;28;20032;-44
2023/10/31 02:28:00;;;;;;;10.48;7.00;;;11.80;99.90;;;;;;5044053;28;20037;-45
2023/10/31 02:30:27;;;;;;;9.45;6.95;;;11.80;99.90;;;;;;5045044;28;20021;-45
2023/10/31 02:32:52;;;;;;;7.30;5.75;;;11.80;99.90;;;;;;5044057;28;20025;-45
2023/10/31 02:35:18;;;;;;;5.35;4.82;;;11.80;99.90;;;;;;5043793;28;20055;-45
2023/10/31 02:37:45;;;;;;;6.18;5.10;;;11.90;99.90;;;;;;5043690;28;20750;-45
2023/10/31 02:40:11;;;;;;;6.25;4.75;;;11.90;99.90;;;;;;5043153;28;20043;-45
2023/10/31 02:42:36;;;;;;;4.93;4.43;;;11.90;99.90;;;;;;5044392;28;20029;-45
2023/10/31 02:45:03;;;;;;;7.45;5.00;;;11.90;99.90;;;;;;5043279;28;20020;-44
2023/10/31 02:47:28;;;;;;;5.80;4.80;;;11.80;99.90;;;;;;5042821;28;20036;-44
2023/10/31 02:49:54;;;;;;;5.70;4.78;;;11.90;99.90;;;;;;5043773;28;20682;-44
2023/10/31 02:52:19;;;;;;;7.07;5.70;;;11.90;99.90;;;;;;5043346;28;20094;-44
2023/10/31 02:54:45;;;;;;;7.65;5.95;;;11.80;99.90;;;;;;5043238;28;20078;-44
2023/10/31 02:57:11;;;;;;;7.50;5.57;;;11.90;99.90;;;;;;5043516;28;20060;-44
2023/10/31 02:59:37;;;;;;;6.93;5.68;;;11.90;99.90;;;;;;5043574;28;20029;-44
2023/10/31 03:02:02;;;;;;;9.18;6.07;;;11.90;99.90;;;;;;5042999;28;20029;-45
2023/10/31 03:04:28;;;;;;;7.57;5.32;;;11.90;99.90;;;;;;5043365;28;20032;-45
2023/10/31 03:06:53;;;;;;;5.85;5.28;;;11.90;99.90;;;;;;5043103;28;20779;-45
2023/10/31 03:09:19;;;;;;;7.05;6.32;;;11.90;99.90;;;;;;5042775;28;20037;-45
2023/10/31 03:11:44;;;;;;;7.53;6.47;;;11.90;99.90;;;;;;5044415;28;20808;-43
2023/10/31 03:14:13;;;;;;;7.47;6.40;;;11.90;99.90;;;;;;5042445;28;20476;-43
2023/10/31 03:16:39;;;;;;;5.85;4.97;;;11.90;99.90;;;;;;5043482;28;20029;-44
2023/10/31 03:19:05;;;;;;;6.93;6.22;;;11.90;99.90;;;;;;5043208;28;20017;-44
2023/10/31 03:21:30;;;;;;;6.95;6.25;;;11.90;99.90;;;;;;5041812;28;20781;-43
2023/10/31 03:23:57;;;;;;;9.45;7.32;;;11.90;99.90;;;;;;5042970;28;20098;-44
2023/10/31 03:26:23;;;;;;;7.68;6.50;;;11.90;99.90;;;;;;5042971;28;20036;-43
2023/10/31 03:28:49;;;;;;;7.97;6.90;;;11.90;99.90;;;;;;5042520;28;20024;-44
2023/10/31 03:31:15;;;;;;;7.20;6.45;;;11.90;99.90;;;;;;5042877;28;20039;-44
2023/10/31 03:33:41;;;;;;;9.48;7.25;;;11.90;99.90;;;;;;5042987;28;20477;-45
2023/10/31 03:36:08;;;;;;;10.48;8.20;;;11.90;99.90;;;;;;5041958;28;20067;-44
2023/10/31 03:38:36;;;;;;;8.82;7.38;;;11.90;99.90;;;;;;5042205;28;20052;-46
2023/10/31 03:41:02;;;;;;;8.75;7.93;;;11.90;99.90;;;;;;5042784;28;20029;-45
2023/10/31 03:43:27;;;;;;;8.30;7.25;;;11.90;99.90;;;;;;5041974;28;20036;-43
2023/10/31 03:45:53;;;;;;;8.70;7.63;;;11.90;99.90;;;;;;5042925;28;20111;-44
2023/10/31 03:48:19;;;;;;;10.15;7.93;;;11.90;99.90;;;;;;5042300;28;20550;-45
2023/10/31 03:50:44;;;;;;;8.52;7.63;;;11.80;99.90;;;;;;5042271;28;20048;-45
2023/10/31 03:53:10;;;;;;;8.25;7.45;;;11.80;99.90;;;;;;5042415;28;20659;-45
2023/10/31 03:55:39;;;;;;;10.98;8.00;;;11.80;99.90;;;;;;5042744;28;20479;-44
2023/10/31 03:58:05;;;;;;;8.82;7.07;;;11.80;99.90;;;;;;5040848;28;20032;-44
2023/10/31 04:00:31;;;;;;;7.80;6.10;;;11.80;99.90;;;;;;5042142;28;20190;-44
2023/10/31 04:02:56;;;;;;;7.25;6.35;;;11.80;99.90;;;;;;5042362;28;20481;-44
2023/10/31 04:05:25;;;;;;;6.40;5.80;;;11.80;99.90;;;;;;5041204;28;20416;-44
2023/10/31 04:07:50;;;;;;;6.45;5.70;;;11.80;99.90;;;;;;5042351;28;20024;-44
2023/10/31 04:10:18;;;;;;;7.68;6.30;;;11.70;99.90;;;;;;5041894;28;20809;-44
2023/10/31 04:12:47;;;;;;;7.25;5.80;;;11.70;99.90;;;;;;5041389;28;20610;-44
2023/10/31 04:15:13;;;;;;;5.47;4.85;;;11.70;99.90;;;;;;5041221;28;20040;-43
2023/10/31 04:17:38;;;;;;;5.65;4.88;;;11.70;99.90;;;;;;5041136;28;20025;-45
2023/10/31 04:20:04;;;;;;;6.07;4.80;;;11.70;99.90;;;;;;5042310;28;20350;-44
2023/10/31 04:22:30;;;;;;;6.63;5.00;;;11.70;99.90;;;;;;5041040;28;20033;-43
2023/10/31 04:24:56;;;;;;;5.97;4.50;;;11.70;99.90;;;;;;5041116;28;20025;-44
2023/10/31 04:27:22;;;;;;;4.93;4.22;;;11.70;99.90;;;;;;5041496;28;20047;-45
2023/10/31 04:29:47;;;;;;;5.60;3.80;;;11.70;99.90;;;;;;5042136;28;20606;-44
2023/10/31 04:32:13;;;;;;;5.68;4.13;;;11.70;99.90;;;;;;5040703;28;20525;-44
2023/10/31 04:34:39;;;;;;;6.15;4.00;;;11.60;99.90;;;;;;5041938;28;20044;-45
2023/10/31 04:37:04;;;;;;;4.63;3.65;;;11.60;99.90;;;;;;5041224;28;20020;-45
2023/10/31 04:39:30;;;;;;;4.55;3.65;;;11.60;99.90;;;;;;5040709;28;20534;-44
2023/10/31 04:41:55;;;;;;;4.97;3.40;;;11.60;99.90;;;;;;5041727;28;20021;-44
2023/10/31 04:44:21;;;;;;;3.40;2.95;;;11.60;99.90;;;;;;5040778;28;20461;-45
2023/10/31 04:46:47;;;;;;;4.22;3.35;;;11.60;99.90;;;;;;5040684;28;20029;-44
2023/10/31 04:49:12;;;;;;;3.53;2.78;;;11.60;99.90;;;;;;5040457;28;20025;-44
2023/10/31 04:51:38;;;;;;;3.50;3.13;;;11.60;99.90;;;;;;5041851;28;20079;-44
2023/10/31 04:54:04;;;;;;;5.25;4.20;;;11.60;99.90;;;;;;5041147;28;20092;-45
2023/10/31 04:56:30;;;;;;;5.45;3.78;;;11.60;99.90;;;;;;5041164;28;20412;-45
2023/10/31 04:58:56;;;;;;;5.70;3.75;;;11.50;99.90;;;;;;5041020;28;20746;-45
2023/10/31 05:01:22;;;;;;;4.40;3.30;;;11.50;99.90;;;;;;5040574;28;20044;-45
2023/10/31 05:03:47;;;;;;;4.88;3.80;;;11.50;99.90;;;;;;5041099;28;20037;-45
2023/10/31 05:06:13;;;;;;;3.95;3.38;;;11.50;99.90;;;;;;5041003;28;20456;-44
2023/10/31 05:08:38;;;;;;;3.95;3.58;;;11.50;99.90;;;;;;5040324;28;20396;-44
2023/10/31 05:11:04;;;;;;;4.78;3.65;;;11.50;99.90;;;;;;5040569;28;20029;-45
2023/10/31 05:13:30;;;;;;;3.92;3.50;;;11.50;99.90;;;;;;5040879;28;20112;-44
2023/10/31 05:16:05;;;;;;;6.03;4.30;;;11.50;99.90;;;;;;5040292;28;20102;-45
2023/10/31 05:18:30;;;;;;;5.60;4.40;;;11.50;99.90;;;;;;5040328;28;20021;-44
2023/10/31 05:20:56;;;;;;;5.20;4.25;;;11.50;99.90;;;;;;5040466;28;20028;-44
2023/10/31 05:23:21;;;;;;;3.80;3.50;;;11.50;99.90;;;;;;5040236;28;20025;-45
2023/10/31 05:25:47;;;;;;;5.25;4.20;;;11.50;99.90;;;;;;5040810;28;20136;-45
2023/10/31 05:28:12;;;;;;;4.30;3.90;;;11.50;99.90;;;;;;5039252;28;20570;-44
2023/10/31 05:30:38;;;;;;;4.82;4.05;;;11.50;99.90;;;;;;5041014;28;20032;-44
2023/10/31 05:33:03;;;;;;;4.82;3.92;;;11.50;99.90;;;;;;5040749;28;20056;-44
2023/10/31 05:35:29;;;;;;;4.32;3.92;;;11.50;99.90;;;;;;5039342;28;20170;-44
2023/10/31 05:37:55;;;;;;;4.65;4.20;;;11.50;99.90;;;;;;5040712;28;20029;-45
2023/10/31 05:40:24;;;;;;;5.28;4.68;;;11.50;99.90;;;;;;5040531;28;20026;-44
2023/10/31 05:42:50;;;;;;;5.15;4.07;;;11.50;99.90;;;;;;5040814;28;20033;-45
2023/10/31 05:45:18;;;;;;;6.43;4.53;;;11.50;99.90;;;;;;5040299;28;20025;-44
2023/10/31 05:47:44;;;;;;;7.18;4.20;;;11.50;99.90;;;;;;5040518;28;20098;-45
2023/10/31 05:50:09;;;;;;;6.13;4.30;;;11.60;99.90;;;;;;5039772;28;20459;-44
2023/10/31 05:52:36;;;;;;;5.00;3.83;;;11.50;99.90;;;;;;5040882;28;20562;-44
2023/10/31 05:55:01;;;;;;;4.43;3.83;;;11.50;99.90;;;;;;5040307;28;20025;-45
2023/10/31 05:57:27;;;;;;;4.55;3.40;;;11.50;99.90;;;;;;5040043;28;20033;-45
2023/10/31 05:59:58;;;;;;;3.95;3.22;;;11.50;99.90;;;;;;5039876;28;20017;-45
2023/10/31 06:02:24;;;;;;;3.80;3.25;;;11.50;99.90;;;;;;5039721;28;20029;-46
2023/10/31 06:04:50;;;;;;;3.50;3.20;;;11.50;99.90;;;;;;5040268;28;20798;-45
2023/10/31 06:07:16;;;;;;;3.90;3.50;;;11.40;99.90;;;;;;5040432;28;20846;-45
2023/10/31 06:09:41;;;;;;;3.53;2.97;;;11.40;99.90;;;;;;5040519;28;20025;-45
2023/10/31 06:12:07;;;;;;;3.50;3.00;;;11.40;99.90;;;;;;5040511;28;20101;-44
2023/10/31 06:14:32;;;;;;;4.43;3.25;;;11.40;99.90;;;;;;5040687;28;20079;-44
2023/10/31 06:16:59;;;;;;;3.20;2.63;;;11.30;99.90;;;;;;5039921;28;20029;-47
2023/10/31 06:19:25;;;;;;;3.10;2.78;;;11.30;99.90;;;;;;5040549;28;20689;-46
2023/10/31 06:21:50;;;;;;;4.20;2.30;;;11.30;99.90;;;;;;5040125;28;20522;-47
2023/10/31 06:24:16;;;;;;;2.95;2.22;;;11.20;99.90;;;;;;5038950;28;20170;-46
2023/10/31 06:26:41;;;;;;;2.58;1.58;;;11.20;99.90;;;;;;5040544;28;20037;-46
2023/10/31 06:29:07;;;;;;;2.75;1.88;;;11.20;99.90;;;;;;5040801;28;20040;-45
2023/10/31 06:31:33;;;;;;;2.78;2.03;;;11.20;99.90;;;;;;5039595;28;20055;-45
2023/10/31 06:33:58;;;;;;;2.20;1.85;;;11.20;99.90;;;;;;5040711;28;20104;-45
2023/10/31 06:36:24;;;;;;;2.35;1.60;;;11.20;99.90;;;;;;5038927;28;20392;-44
2023/10/31 06:38:52;;;;;;;2.05;1.60;;;11.10;99.90;;;;;;5039751;28;20033;-45
2023/10/31 06:41:18;;;;;;;1.48;1.30;;;11.10;99.90;;;;;;5039111;28;20021;-44
2023/10/31 06:43:43;;;;;;;1.20;1.10;;;11.10;99.90;;;;;;5040159;28;20490;-45
2023/10/31 06:46:09;;;;;;;1.23;1.10;;;11.20;99.90;;;;;;5039461;28;20056;-45
2023/10/31 06:48:35;;;;;;;1.45;1.20;;;11.20;99.90;;;;;;5039757;28;20556;-45
2023/10/31 06:51:00;;;;;;;1.00;0.90;;;11.20;99.90;;;;;;5039546;28;20021;-44
2023/10/31 06:53:26;;;;;;;1.20;1.05;;;11.20;99.90;;;;;;5039382;28;20032;-45
2023/10/31 06:55:51;;;;;;;1.55;1.02;;;11.30;99.90;;;;;;5048596;28;20024;-45
2023/10/31 06:58:17;;;;;;;1.48;1.20;;;11.30;99.90;;;;;;5039285;28;20033;-44
2023/10/31 07:00:43;;;;;;;2.63;1.00;;;11.30;99.90;;;;;;5038771;28;20055;-45
2023/10/31 07:03:09;;;;;;;2.58;1.20;;;11.30;99.90;;;;;;5039300;28;20151;-45
2023/10/31 07:05:38;;;;;;;1.52;1.40;;;11.40;99.90;;;;;;5036915;28;20196;-45
2023/10/31 07:08:05;;;;;;;2.10;1.70;;;11.40;99.90;;;;;;5037883;28;20040;-44
2023/10/31 07:10:30;;;;;;;3.47;2.45;;;11.40;99.90;;;;;;5038352;28;20598;-44
2023/10/31 07:12:58;;;;;;;3.83;2.47;;;11.40;99.90;;;;;;5038677;28;20577;-45
2023/10/31 07:15:27;;;;;;;3.35;2.78;;;11.40;99.90;;;;;;5041469;28;20048;-44
2023/10/31 07:17:52;;;;;;;3.95;2.83;;;11.40;99.90;;;;;;5042085;28;20528;-44
2023/10/31 07:20:18;;;;;;;4.57;3.42;;;11.40;99.90;;;;;;5040351;28;20052;-44
2023/10/31 07:22:45;;;;;;;4.10;3.70;;;11.40;99.90;;;;;;5042321;28;20107;-44
2023/10/31 07:25:11;;;;;;;4.88;4.18;;;11.40;99.90;;;;;;5041264;28;20057;-44
2023/10/31 07:27:36;;;;;;;4.97;4.28;;;11.50;99.90;;;;;;5041408;28;20144;-44
2023/10/31 07:30:07;;;;;;;5.75;5.03;;;11.50;99.90;;;;;;5041855;28;20166;-44
2023/10/31 07:32:33;;;;;;;5.00;4.15;;;11.40;99.90;;;;;;5041727;28;20722;-44
2023/10/31 07:34:58;;;;;;;5.60;4.90;;;11.50;99.90;;;;;;5040606;28;20689;-43
2023/10/31 07:37:24;;;;;;;6.97;5.03;;;11.50;99.90;;;;;;5041801;28;20020;-44
2023/10/31 07:39:53;;;;;;;6.10;4.68;;;11.50;99.90;;;;;;5041589;28;20028;-44
2023/10/31 07:42:18;;;;;;;5.18;4.68;;;11.50;99.90;;;;;;5040615;28;20063;-44
2023/10/31 07:44:44;;;;;;;7.03;5.90;;;11.50;99.90;;;;;;5037965;28;20132;-44
2023/10/31 07:47:09;;;;;;;6.00;5.40;;;11.50;99.90;;;;;;5041362;28;20033;-44
2023/10/31 07:49:35;;;;;;;7.28;6.28;;;11.50;99.90;;;;;;5040517;28;20036;-44
2023/10/31 07:52:00;;;;;;;9.60;8.07;;;11.50;99.90;;;;;;5042096;28;20089;-44
2023/10/31 07:54:26;;;;;;;11.25;9.43;;;11.50;99.90;;;;;;5042108;28;20025;-46
2023/10/31 07:56:52;;;;;;;13.73;9.57;;;11.50;99.90;;;;;;5041745;28;20195;-44
2023/10/31 07:59:18;;;;;;;12.32;9.63;;;11.60;99.90;;;;;;5042024;28;20017;-44
2023/10/31 08:01:43;;;;;;;11.15;9.35;;;11.60;99.90;;;;;;5042089;28;20045;-45
2023/10/31 08:04:09;;;;;;;11.10;9.00;;;11.70;99.90;;;;;;5042139;28;20021;-43
2023/10/31 08:06:35;;;;;;;13.90;9.88;;;11.70;99.90;;;;;;5042690;28;20162;-44
2023/10/31 08:09:01;;;;;;;14.40;11.32;;;11.70;99.90;;;;;;5041549;28;20021;-44
2023/10/31 08:11:26;;;;;;;10.10;9.00;;;11.80;99.90;;;;;;5040722;28;20227;-44
2023/10/31 08:13:52;;;;;;;13.30;8.88;;;11.80;99.90;;;;;;5041875;28;20029;-43
2023/10/31 08:16:19;;;;;;;10.85;8.88;;;11.80;99.90;;;;;;5041083;28;20029;-44
2023/10/31 08:18:45;;;;;;;10.95;9.02;;;11.80;99.90;;;;;;5041527;28;20021;-44
2023/10/31 08:21:11;;;;;;;10.93;9.52;;;11.90;99.90;;;;;;5041866;28;20157;-45
2023/10/31 08:23:37;;;;;;;10.27;8.98;;;12.00;99.90;;;;;;5041097;28;20061;-46
2023/10/31 08:26:03;;;;;;;10.00;8.65;;;12.10;99.90;;;;;;5041738;28;20694;-43
2023/10/31 08:28:30;;;;;;;8.90;8.00;;;12.10;99.90;;;;;;5042141;28;20182;-43
2023/10/31 08:30:56;;;;;;;9.18;8.10;;;12.10;99.90;;;;;;5041377;28;20029;-45
2023/10/31 08:33:22;;;;;;;9.45;8.07;;;12.20;99.90;;;;;;5041581;28;20036;-45
2023/10/31 08:35:47;;;;;;;7.80;7.00;;;12.20;99.90;;;;;;5041378;28;20053;-45
2023/10/31 08:38:13;;;;;;;8.48;7.00;;;12.30;99.90;;;;;;5040633;28;20248;-44
2023/10/31 08:40:39;;;;;;;6.47;5.75;;;12.30;99.90;;;;;;5041977;28;20029;-45
2023/10/31 08:43:06;;;;;;;8.88;6.80;;;12.30;99.90;;;;;;5042109;28;20024;-44
2023/10/31 08:45:32;;;;;;;7.22;6.53;;;12.40;99.90;;;;;;5041331;28;20025;-44
2023/10/31 08:47:58;;;;;;;7.53;6.18;;;12.40;99.90;;;;;;5041146;28;20048;-43
2023/10/31 08:50:23;;;;;;;6.32;5.22;;;12.40;99.90;;;;;;5040643;28;20029;-43
2023/10/31 08:52:49;;;;;;;6.80;5.22;;;12.50;99.90;;;;;;5041118;28;20033;-44
2023/10/31 08:55:14;;;;;;;6.20;5.15;;;12.50;99.90;;;;;;5040361;28;20025;-45
2023/10/31 08:57:40;;;;;;;5.80;4.68;;;12.50;99.90;;;;;;5041082;28;20028;-45
2023/10/31 09:00:06;;;;;;;6.55;4.88;;;12.50;99.90;;;;;;5040717;28;21344;-44
2023/10/31 09:02:31;;;;;;;6.32;4.55;;;12.50;99.90;;;;;;5040465;28;20037;-44
2023/10/31 09:04:57;;;;;;;7.00;5.10;;;12.50;99.90;;;;;;5040867;28;20033;-43
2023/10/31 09:07:23;;;;;;;7.05;4.53;;;12.60;99.90;;;;;;5040387;28;20025;-44
2023/10/31 09:09:54;;;;;;;5.47;4.90;;;12.60;99.90;;;;;;5041414;28;20533;-44
2023/10/31 09:12:20;;;;;;;7.53;5.00;;;12.60;99.90;;;;;;5041373;28;20083;-44
2023/10/31 09:14:52;;;;;;;6.97;5.20;;;12.60;99.90;;;;;;5040735;28;20040;-43
2023/10/31 09:17:18;;;;;;;6.00;4.30;;;12.70;99.90;;;;;;5040168;28;20849;-44
2023/10/31 09:19:44;;;;;;;6.00;4.43;;;12.80;99.90;;;;;;5040541;28;20033;-44
2023/10/31 09:22:09;;;;;;;6.00;4.50;;;12.90;99.90;;;;;;5039525;28;20780;-43
2023/10/31 09:24:35;;;;;;;4.90;4.22;;;13.00;99.90;;;;;;5040136;28;20697;-44
2023/10/31 09:27:00;;;;;;;7.88;5.20;;;13.10;99.90;;;;;;5039686;28;20214;-43
2023/10/31 09:29:26;;;;;;;6.80;5.13;;;13.20;99.90;;;;;;5040368;28;20036;-43
2023/10/31 09:31:51;;;;;;;6.88;4.60;;;13.30;99.90;;;;;;5040737;28;20036;-43
2023/10/31 09:34:18;;;;;;;7.63;5.05;;;13.30;99.90;;;;;;5039142;28;20049;-44
2023/10/31 09:36:43;;;;;;;7.47;4.57;;;13.30;99.90;;;;;;5038945;28;20715;-43
2023/10/31 09:39:09;;;;;;;6.93;4.90;;;13.30;99.90;;;;;;5040010;28;20035;-44
2023/10/31 09:41:34;;;;;;;7.43;4.93;;;13.20;99.90;;;;;;5039639;28;20027;-45
2023/10/31 09:44:00;;;;;;;6.78;4.75;;;13.20;99.90;;;;;;5040079;28;20070;-44
2023/10/31 09:46:29;;;;;;;7.07;4.88;;;13.30;99.90;;;;;;5039875;28;20024;-45
2023/10/31 09:48:59;;;;;;;5.53;4.63;;;13.40;99.90;;;;;;5036134;28;20017;-45
2023/10/31 09:51:24;;;;;;;5.97;5.38;;;13.50;99.90;;;;;;5039032;28;20028;-45
2023/10/31 09:53:53;;;;;;;6.53;5.80;;;13.50;99.90;;;;;;5039824;28;20020;-45
2023/10/31 09:56:19;;;;;;;7.07;6.30;;;13.60;99.90;;;;;;5040032;28;20029;-45
2023/10/31 09:58:45;;;;;;;8.02;6.93;;;13.60;99.90;;;;;;5040198;28;20029;-45
2023/10/31 10:01:11;;;;;;;8.60;6.07;;;13.70;99.90;;;;;;5040731;28;20031;-44
2023/10/31 10:03:37;;;;;;;10.07;7.05;;;13.70;99.90;;;;;;5039931;28;20037;-44
2023/10/31 10:06:03;;;;;;;8.13;6.40;;;13.80;99.90;;;;;;5040514;28;20017;-44
2023/10/31 10:08:29;;;;;;;7.45;6.22;;;13.80;99.90;;;;;;5039815;28;20041;-44
2023/10/31 10:10:55;;;;;;;6.80;5.75;;;13.80;99.90;;;;;;5039693;28;20369;-44
2023/10/31 10:13:21;;;;;;;7.32;6.60;;;13.90;99.90;;;;;;5039957;28;20056;-44
2023/10/31 10:15:54;;;;;;;8.43;6.70;;;13.90;99.90;;;;;;5039675;28;20103;-44
2023/10/31 10:18:31;;;;;;;10.05;6.47;;;13.90;99.90;;;;;;5039636;28;20104;-44
2023/10/31 10:20:57;;;;;;;6.68;5.55;;;13.90;99.90;;;;;;5039672;28;20041;-43
2023/10/31 10:23:24;;;;;;;6.13;5.20;;;13.90;99.90;;;;;;5039250;28;20563;-43
2023/10/31 10:25:50;;;;;;;5.78;4.78;;;13.80;99.90;;;;;;5040170;28;20063;-43
2023/10/31 10:28:16;;;;;;;6.15;4.53;;;13.80;99.90;;;;;;5038845;28;20116;-43
2023/10/31 10:30:41;;;;;;;6.47;4.65;;;13.70;99.90;;;;;;5039547;28;20567;-43
2023/10/31 10:33:07;;;;;;;6.03;4.18;;;13.70;99.90;;;;;;5039595;28;20033;-43
2023/10/31 10:35:34;;;;;;;5.40;4.90;;;13.70;99.90;;;;;;5039565;28;20045;-44
2023/10/31 10:38:01;;;;;;;4.65;4.05;;;13.70;99.90;;;;;;5039020;28;20789;-44
2023/10/31 10:40:26;;;;;;;10.52;4.35;;;13.70;99.90;;;;;;5038681;28;20028;-44
2023/10/31 10:42:57;;;;;;;6.15;4.90;;;13.90;99.90;;;;;;5039986;28;20021;-46
2023/10/31 10:45:24;;;;;;;5.30;4.38;;;13.90;99.90;;;;;;5038459;28;20025;-44
2023/10/31 10:47:50;;;;;;;5.28;4.45;;;14.00;99.90;;;;;;5041455;28;20045;-44
2023/10/31 10:50:20;;;;;;;7.30;4.32;;;14.00;99.90;;;;;;5043005;28;20027;-43
2023/10/31 10:52:55;;;;;;;5.10;3.90;;;14.10;99.90;;;;;;5043408;28;20039;-36
2023/10/31 10:55:25;;;;;;;6.22;4.50;;;14.10;99.90;;;;;;5043249;28;20849;-37
2023/10/31 10:58:07;;;;;;;5.25;4.00;;;14.10;99.90;;;;;;5043747;28;20067;-35
2023/10/31 11:00:34;;;;;;;5.00;3.80;;;14.20;99.90;;;;;;5042143;28;20637;-37
2023/10/31 11:03:01;;;;;;;6.45;4.35;;;14.20;99.90;;;;;;5043240;28;20472;-37
2023/10/31 11:05:27;;;;;;;5.35;3.58;;;14.30;99.90;;;;;;5042265;28;20035;-37
2023/10/31 11:07:55;;;;;;;6.93;4.10;;;14.40;99.90;;;;;;5043226;28;20052;-36
2023/10/31 11:10:23;;;;;;;5.47;4.07;;;14.40;99.90;;;;;;5043106;28;20029;-36
2023/10/31 11:12:53;;;;;;;4.53;3.63;;;14.40;99.90;;;;;;5043165;28;20117;-36
2023/10/31 11:15:19;;;;;;;6.35;4.38;;;14.40;99.90;;;;;;5043394;28;20108;-37
2023/10/31 11:17:48;;;;;;;6.75;4.65;;;14.30;99.90;;;;;;5043344;28;20025;-38
2023/10/31 11:20:15;;;;;;;5.63;4.47;;;14.20;99.90;;;;;;5042504;28;20036;-37
2023/10/31 11:22:44;;;;;;;5.55;4.47;;;14.20;99.90;;;;;;5023193;28;20478;-46
2023/10/31 11:25:14;;;;;;;11.50;7.45;;;14.10;99.90;;;;;;4948940;28;20025;-37
2023/10/31 11:27:41;;;;;;;9.60;7.15;;;14.10;99.90;;;;;;5033089;28;20047;-39
2023/10/31 11:30:19;;;;;;;7.95;7.10;;;14.20;99.90;;;;;;5044495;28;20029;-37
2023/10/31 11:32:49;;;;;;;8.82;7.93;;;14.30;99.90;;;;;;5042907;28;20433;-37
2023/10/31 11:35:17;;;;;;;11.32;8.98;;;14.50;99.90;;;;;;5041383;28;20052;-37
2023/10/31 11:37:49;;;;;;;9.20;8.40;;;14.60;99.90;;;;;;5043610;28;20032;-36
2023/10/31 11:40:24;;;;;;;12.70;10.47;;;14.80;99.90;;;;;;5043396;28;20055;-36
2023/10/31 11:42:54;;;;;;;12.93;11.20;;;15.00;99.90;;;;;;5039697;28;20271;-37
2023/10/31 11:45:36;;;;;;;15.13;12.20;;;15.10;99.90;;;;;;5041326;28;20036;-37
2023/10/31 11:48:04;;;;;;;15.93;11.43;;;15.00;99.90;;;;;;5039010;28;20025;-36
2023/10/31 11:50:30;;;;;;;10.85;9.75;;;15.00;99.90;;;;;;5042079;28;20029;-36
2023/10/31 11:53:12;;;;;;;11.15;9.23;;;14.90;99.90;;;;;;5042235;28;20089;-36
2023/10/31 11:55:42;;;;;;;12.13;10.60;;;14.90;99.90;;;;;;5042157;28;20044;-37
2023/10/31 11:58:21;;;;;;;15.02;11.45;;;14.90;99.90;;;;;;5040608;28;20029;-37
2023/10/31 12:00:52;;;;;;;15.68;12.00;;;14.90;99.90;;;;;;5041460;28;20036;-36
2023/10/31 12:03:22;;;;;;;14.30;12.80;;;14.80;99.90;;;;;;5040928;28;20044;-37
2023/10/31 12:05:52;;;;;;;15.50;13.13;;;14.80;99.90;;;;;;5042323;28;20082;-37
2023/10/31 12:08:31;;;;;;;13.95;12.00;;;14.90;99.90;;;;;;5041068;28;20038;-36
2023/10/31 12:11:10;;;;;;;12.60;11.05;;;14.90;99.90;;;;;;5041570;28;20029;-36
2023/10/31 12:13:41;;;;;;;14.30;11.38;;;14.90;99.90;;;;;;5040282;28;20017;-36
2023/10/31 12:16:12;;;;;;;14.52;11.68;;;14.90;99.90;;;;;;5041500;28;20036;-37
2023/10/31 12:18:41;;;;;;;12.77;10.23;;;14.80;99.90;;;;;;5042022;28;20100;-37
2023/10/31 12:21:08;;;;;;;14.52;11.57;;;14.80;99.90;;;;;;5041906;28;20136;-36
2023/10/31 12:23:34;;;;;;;14.75;11.02;;;14.80;99.90;;;;;;5040797;28;20029;-37
2023/10/31 12:25:59;;;;;;;13.52;11.05;;;14.70;99.90;;;;;;5042021;28;20029;-37
2023/10/31 12:28:26;;;;;;;16.00;12.40;;;14.60;99.90;;;;;;5040789;28;20040;-38
2023/10/31 12:30:58;;;;;;;12.85;10.90;;;14.60;99.90;;;;;;5041019;28;20429;-38
2023/10/31 12:33:26;;;;;;;13.98;11.10;;;14.40;99.90;;;;;;5040533;28;20035;-38
2023/10/31 12:35:59;;;;;;;13.27;10.63;;;14.30;99.90;;;;;;5040947;28;20056;-37
2023/10/31 12:38:25;;;;;;;14.50;10.73;;;14.30;99.90;;;;;;5039700;28;20025;-36
2023/10/31 12:40:51;;;;;;;12.75;10.73;;;14.30;99.90;;;;;;5041327;28;20037;-37
2023/10/31 12:43:17;;;;;;;13.05;10.35;;;14.30;99.90;;;;;;5040182;28;20032;-37